ěÝzenÝ letovÚho provozu ╚eskÚ republiky
Letiste: LKPD Aktualizace: 19.01.2021 13:57:24  UTC
 METAR LKPD 19.01. 14:00 ...
METAR LKPD 191400Z 19008KT CAVOK 02/M02 Q1012 TEMPO 5000 RASN BKN020 RMK BLU BLU TEMPO WHT=
 TAF LKPD 19.01. 11:00 COR
TAF COR LKPD 191100Z 1912/2012 24010KT 9999 SCT025      BECMG 1914/1917 7000 RASN BKN025 OVC040      TEMPO 1915/1921 22014KT 4000 SNRA BKN014      PROB30 TEMPO 1915/1918 2000 SN BKN010      BECMG 1921/2000 9999 NSW SCT040      BECMG 2007/2009 08004KT=